sensor_id;sensor_type;location;lat;lon;timestamp;pressure;altitude;pressure_sealevel;temperature;humidity
51986;BME280;38002;53.296;6.600;2024-02-26T00:03:13;100599.97;;;2.89;100.00
51986;BME280;38002;53.296;6.600;2024-02-26T00:08:14;100593.97;;;2.85;100.00
51986;BME280;38002;53.296;6.600;2024-02-26T00:13:14;100598.25;;;2.88;100.00
51986;BME280;38002;53.296;6.600;2024-02-26T00:18:15;100597.41;;;2.87;100.00
51986;BME280;38002;53.296;6.600;2024-02-26T00:23:15;100602.66;;;2.89;100.00
51986;BME280;38002;53.296;6.600;2024-02-26T00:28:16;100596.44;;;2.88;100.00
51986;BME280;38002;53.296;6.600;2024-02-26T00:33:17;100593.00;;;2.86;100.00
51986;BME280;38002;53.296;6.600;2024-02-26T00:38:17;100607.19;;;2.88;100.00
51986;BME280;38002;53.296;6.600;2024-02-26T00:43:18;100601.91;;;2.87;100.00
51986;BME280;38002;53.296;6.600;2024-02-26T00:48:18;100611.69;;;2.88;100.00
51986;BME280;38002;53.296;6.600;2024-02-26T00:53:18;100608.25;;;2.86;100.00
51986;BME280;38002;53.296;6.600;2024-02-26T00:58:19;100621.56;;;2.87;100.00
51986;BME280;38002;53.296;6.600;2024-02-26T01:03:20;100621.56;;;2.87;100.00
51986;BME280;38002;53.296;6.600;2024-02-26T01:08:20;100611.09;;;2.84;100.00
51986;BME280;38002;53.296;6.600;2024-02-26T01:13:21;100623.66;;;2.84;100.00
51986;BME280;38002;53.296;6.600;2024-02-26T01:18:21;100622.03;;;2.81;100.00
51986;BME280;38002;53.296;6.600;2024-02-26T01:23:22;100628.50;;;2.79;100.00
51986;BME280;38002;53.296;6.600;2024-02-26T01:28:22;100630.59;;;2.75;100.00
51986;BME280;38002;53.296;6.600;2024-02-26T01:33:23;100637.78;;;2.74;100.00
51986;BME280;38002;53.296;6.600;2024-02-26T01:38:23;100637.66;;;2.76;100.00
51986;BME280;38002;53.296;6.600;2024-02-26T01:43:24;100642.03;;;2.77;100.00
51986;BME280;38002;53.296;6.600;2024-02-26T01:48:25;100647.31;;;2.79;100.00
51986;BME280;38002;53.296;6.600;2024-02-26T01:53:26;100648.03;;;2.81;100.00
51986;BME280;38002;53.296;6.600;2024-02-26T01:58:26;100641.69;;;2.82;100.00
51986;BME280;38002;53.296;6.600;2024-02-26T02:03:28;100651.72;;;2.80;100.00
51986;BME280;38002;53.296;6.600;2024-02-26T02:08:30;100647.19;;;2.80;100.00
51986;BME280;38002;53.296;6.600;2024-02-26T02:13:31;100642.66;;;2.81;100.00
51986;BME280;38002;53.296;6.600;2024-02-26T02:18:31;100655.13;;;2.82;100.00
51986;BME280;38002;53.296;6.600;2024-02-26T02:23:32;100649.03;;;2.80;100.00
51986;BME280;38002;53.296;6.600;2024-02-26T02:28:32;100639.50;;;2.76;100.00
51986;BME280;38002;53.296;6.600;2024-02-26T02:33:34;100646.56;;;2.77;100.00
51986;BME280;38002;53.296;6.600;2024-02-26T02:38:34;100650.44;;;2.72;100.00
51986;BME280;38002;53.296;6.600;2024-02-26T02:43:35;100644.47;;;2.69;100.00
51986;BME280;38002;53.296;6.600;2024-02-26T02:48:35;100641.28;;;2.64;100.00
51986;BME280;38002;53.296;6.600;2024-02-26T02:53:36;100654.81;;;2.62;100.00
51986;BME280;38002;53.296;6.600;2024-02-26T02:58:36;100669.31;;;2.60;100.00
51986;BME280;38002;53.296;6.600;2024-02-26T03:03:37;100664.81;;;2.60;100.00
51986;BME280;38002;53.296;6.600;2024-02-26T03:08:37;100677.38;;;2.60;100.00
51986;BME280;38002;53.296;6.600;2024-02-26T03:13:39;100677.38;;;2.60;100.00
51986;BME280;38002;53.296;6.600;2024-02-26T03:18:40;100681.88;;;2.59;100.00
51986;BME280;38002;53.296;6.600;2024-02-26T03:23:40;100685.66;;;2.57;100.00
51986;BME280;38002;53.296;6.600;2024-02-26T03:28:41;100696.50;;;2.55;100.00
51986;BME280;38002;53.296;6.600;2024-02-26T03:33:41;100708.94;;;2.56;100.00
51986;BME280;38002;53.296;6.600;2024-02-26T03:38:42;100716.91;;;2.58;100.00
51986;BME280;38002;53.296;6.600;2024-02-26T03:43:42;100715.94;;;2.59;100.00
51986;BME280;38002;53.296;6.600;2024-02-26T03:48:43;100718.63;;;2.59;100.00
51986;BME280;38002;53.296;6.600;2024-02-26T03:53:43;100717.75;;;2.58;100.00
51986;BME280;38002;53.296;6.600;2024-02-26T03:58:44;100729.38;;;2.59;100.00
51986;BME280;38002;53.296;6.600;2024-02-26T04:03:44;100732.88;;;2.59;100.00
51986;BME280;38002;53.296;6.600;2024-02-26T04:08:45;100745.56;;;2.57;100.00
51986;BME280;38002;53.296;6.600;2024-02-26T04:13:46;100754.59;;;2.56;100.00
51986;BME280;38002;53.296;6.600;2024-02-26T04:18:49;100752.75;;;2.57;100.00
51986;BME280;38002;53.296;6.600;2024-02-26T04:23:49;100771.53;;;2.57;100.00
51986;BME280;38002;53.296;6.600;2024-02-26T04:28:50;100773.47;;;2.55;100.00
51986;BME280;38002;53.296;6.600;2024-02-26T04:33:50;100779.69;;;2.55;100.00
51986;BME280;38002;53.296;6.600;2024-02-26T04:38:51;100774.31;;;2.55;100.00
51986;BME280;38002;53.296;6.600;2024-02-26T04:43:51;100776.81;;;2.58;100.00
51986;BME280;38002;53.296;6.600;2024-02-26T04:48:52;100771.22;;;2.61;100.00
51986;BME280;38002;53.296;6.600;2024-02-26T04:53:52;100771.94;;;2.63;100.00
51986;BME280;38002;53.296;6.600;2024-02-26T04:58:54;100776.97;;;2.68;100.00
51986;BME280;38002;53.296;6.600;2024-02-26T05:03:54;100780.50;;;2.68;100.00
51986;BME280;38002;53.296;6.600;2024-02-26T05:08:54;100780.31;;;2.71;100.00
51986;BME280;38002;53.296;6.600;2024-02-26T05:13:55;100784.47;;;2.76;100.00
51986;BME280;38002;53.296;6.600;2024-02-26T05:18:55;100790.47;;;2.79;100.00
51986;BME280;38002;53.296;6.600;2024-02-26T05:23:56;100802.94;;;2.80;100.00
51986;BME280;38002;53.296;6.600;2024-02-26T05:28:56;100805.47;;;2.82;100.00
51986;BME280;38002;53.296;6.600;2024-02-26T05:33:59;100814.28;;;2.84;100.00
51986;BME280;38002;53.296;6.600;2024-02-26T05:39:00;100818.69;;;2.85;100.00
51986;BME280;38002;53.296;6.600;2024-02-26T05:44:01;100831.03;;;2.87;100.00
51986;BME280;38002;53.296;6.600;2024-02-26T05:49:01;100829.94;;;2.90;100.00
51986;BME280;38002;53.296;6.600;2024-02-26T05:54:03;100843.34;;;2.90;100.00
51986;BME280;38002;53.296;6.600;2024-02-26T05:59:03;100846.03;;;2.90;100.00
51986;BME280;38002;53.296;6.600;2024-02-26T06:04:04;100847.75;;;2.91;100.00
51986;BME280;38002;53.296;6.600;2024-02-26T06:09:04;100849.59;;;2.90;100.00
51986;BME280;38002;53.296;6.600;2024-02-26T06:14:05;100847.66;;;2.92;100.00
51986;BME280;38002;53.296;6.600;2024-02-26T06:19:05;100853.88;;;2.93;100.00
51986;BME280;38002;53.296;6.600;2024-02-26T06:24:06;100868.81;;;2.97;100.00
51986;BME280;38002;53.296;6.600;2024-02-26T06:29:06;100875.88;;;2.98;100.00
51986;BME280;38002;53.296;6.600;2024-02-26T06:34:07;100873.94;;;3.00;100.00
51986;BME280;38002;53.296;6.600;2024-02-26T06:39:07;100874.47;;;3.05;100.00
51986;BME280;38002;53.296;6.600;2024-02-26T06:44:08;100894.97;;;3.06;100.00
51986;BME280;38002;53.296;6.600;2024-02-26T06:49:09;100905.50;;;3.09;100.00
51986;BME280;38002;53.296;6.600;2024-02-26T06:54:09;100907.22;;;3.10;100.00
51986;BME280;38002;53.296;6.600;2024-02-26T06:59:09;100905.50;;;3.09;100.00
51986;BME280;38002;53.296;6.600;2024-02-26T07:04:10;100906.44;;;3.08;100.00
51986;BME280;38002;53.296;6.600;2024-02-26T07:09:11;100919.78;;;3.09;100.00
51986;BME280;38002;53.296;6.600;2024-02-26T07:14:12;100928.56;;;3.11;100.00
51986;BME280;38002;53.296;6.600;2024-02-26T07:19:13;100920.41;;;3.13;100.00
51986;BME280;38002;53.296;6.600;2024-02-26T07:24:13;100931.88;;;3.15;100.00
51986;BME280;38002;53.296;6.600;2024-02-26T07:29:14;100940.72;;;3.17;100.00
51986;BME280;38002;53.296;6.600;2024-02-26T07:34:15;100945.63;;;3.23;100.00
51986;BME280;38002;53.296;6.600;2024-02-26T07:39:15;100948.19;;;3.25;100.00
51986;BME280;38002;53.296;6.600;2024-02-26T07:44:16;100951.75;;;3.25;100.00
51986;BME280;38002;53.296;6.600;2024-02-26T07:49:16;100955.72;;;3.32;100.00
51986;BME280;38002;53.296;6.600;2024-02-26T07:54:17;100967.94;;;3.36;100.00
51986;BME280;38002;53.296;6.600;2024-02-26T07:59:19;100966.63;;;3.42;100.00
51986;BME280;38002;53.296;6.600;2024-02-26T08:04:19;100985.09;;;3.46;100.00
51986;BME280;38002;53.296;6.600;2024-02-26T08:09:20;100972.41;;;3.48;100.00
51986;BME280;38002;53.296;6.600;2024-02-26T08:14:20;100984.31;;;3.57;100.00
51986;BME280;38002;53.296;6.600;2024-02-26T08:19:21;100990.19;;;3.62;100.00
51986;BME280;38002;53.296;6.600;2024-02-26T08:24:23;100994.13;;;3.69;100.00
51986;BME280;38002;53.296;6.600;2024-02-26T08:29:23;100995.50;;;3.75;100.00
51986;BME280;38002;53.296;6.600;2024-02-26T08:34:23;101000.31;;;3.82;100.00
51986;BME280;38002;53.296;6.600;2024-02-26T08:39:24;100995.31;;;3.89;100.00
51986;BME280;38002;53.296;6.600;2024-02-26T08:44:26;101006.47;;;3.95;100.00
51986;BME280;38002;53.296;6.600;2024-02-26T08:49:26;101024.81;;;4.01;100.00
51986;BME280;38002;53.296;6.600;2024-02-26T08:54:27;101041.38;;;4.08;100.00
51986;BME280;38002;53.296;6.600;2024-02-26T08:59:27;101048.25;;;4.12;100.00
51986;BME280;38002;53.296;6.600;2024-02-26T09:04:27;101048.00;;;4.15;100.00
51986;BME280;38002;53.296;6.600;2024-02-26T09:09:28;101037.03;;;4.18;100.00
51986;BME280;38002;53.296;6.600;2024-02-26T09:14:28;101042.88;;;4.23;100.00
51986;BME280;38002;53.296;6.600;2024-02-26T09:19:29;101050.50;;;4.29;100.00
51986;BME280;38002;53.296;6.600;2024-02-26T09:24:29;101057.78;;;4.40;100.00
51986;BME280;38002;53.296;6.600;2024-02-26T09:29:30;101058.16;;;4.46;100.00
51986;BME280;38002;53.296;6.600;2024-02-26T09:34:30;101065.00;;;4.50;100.00
51986;BME280;38002;53.296;6.600;2024-02-26T09:39:31;101065.41;;;4.57;100.00
51986;BME280;38002;53.296;6.600;2024-02-26T09:44:34;101074.22;;;4.59;100.00
51986;BME280;38002;53.296;6.600;2024-02-26T09:49:38;101074.38;;;4.69;100.00
51986;BME280;38002;53.296;6.600;2024-02-26T09:54:39;101081.22;;;4.73;100.00
51986;BME280;38002;53.296;6.600;2024-02-26T09:59:41;101086.88;;;4.81;100.00
51986;BME280;38002;53.296;6.600;2024-02-26T10:04:42;101094.34;;;4.88;100.00
51986;BME280;38002;53.296;6.600;2024-02-26T10:09:43;101094.84;;;4.93;100.00
51986;BME280;38002;53.296;6.600;2024-02-26T10:14:44;101106.84;;;5.00;100.00
51986;BME280;38002;53.296;6.600;2024-02-26T10:19:44;101112.75;;;5.06;100.00
51986;BME280;38002;53.296;6.600;2024-02-26T10:24:46;101116.69;;;5.13;100.00
51986;BME280;38002;53.296;6.600;2024-02-26T10:29:47;101123.56;;;5.17;100.00
51986;BME280;38002;53.296;6.600;2024-02-26T10:34:47;101136.78;;;5.20;100.00
51986;BME280;38002;53.296;6.600;2024-02-26T10:39:48;101142.91;;;5.22;100.00
51986;BME280;38002;53.296;6.600;2024-02-26T10:44:49;101147.19;;;5.24;100.00
51986;BME280;38002;53.296;6.600;2024-02-26T10:49:50;101154.06;;;5.28;100.00
51986;BME280;38002;53.296;6.600;2024-02-26T10:54:53;101155.53;;;5.32;100.00
51986;BME280;38002;53.296;6.600;2024-02-26T10:59:56;101161.44;;;5.37;100.00
51986;BME280;38002;53.296;6.600;2024-02-26T11:04:57;101166.47;;;5.42;100.00
51986;BME280;38002;53.296;6.600;2024-02-26T11:10:03;101182.63;;;5.42;100.00
51986;BME280;38002;53.296;6.600;2024-02-26T11:15:04;101180.81;;;5.42;100.00
51986;BME280;38002;53.296;6.600;2024-02-26T11:20:05;101183.50;;;5.42;100.00
51986;BME280;38002;53.296;6.600;2024-02-26T11:25:07;101191.22;;;5.47;100.00
51986;BME280;38002;53.296;6.600;2024-02-26T11:30:12;101200.03;;;5.49;100.00
51986;BME280;38002;53.296;6.600;2024-02-26T11:35:13;101202.63;;;5.51;100.00
51986;BME280;38002;53.296;6.600;2024-02-26T11:40:17;101215.88;;;5.54;100.00
51986;BME280;38002;53.296;6.600;2024-02-26T11:50:45;101233.66;;;5.56;100.00
51986;BME280;38002;53.296;6.600;2024-02-26T11:55:46;101237.94;;;5.59;100.00
51986;BME280;38002;53.296;6.600;2024-02-26T12:00:46;101236.09;;;5.59;100.00
51986;BME280;38002;53.296;6.600;2024-02-26T12:05:48;101235.59;;;5.65;100.00
51986;BME280;38002;53.296;6.600;2024-02-26T12:10:50;101242.63;;;5.68;100.00
51986;BME280;38002;53.296;6.600;2024-02-26T12:21:01;101241.13;;;5.75;100.00
51986;BME280;38002;53.296;6.600;2024-02-26T12:26:02;101236.72;;;5.74;100.00
51986;BME280;38002;53.296;6.600;2024-02-26T12:31:03;101240.91;;;5.78;100.00
51986;BME280;38002;53.296;6.600;2024-02-26T12:36:04;101249.38;;;5.84;100.00
51986;BME280;38002;53.296;6.600;2024-02-26T12:41:06;101242.88;;;5.87;100.00
51986;BME280;38002;53.296;6.600;2024-02-26T12:46:07;101251.84;;;5.87;100.00
51986;BME280;38002;53.296;6.600;2024-02-26T12:51:08;101247.44;;;5.86;100.00
51986;BME280;38002;53.296;6.600;2024-02-26T12:56:11;101247.44;;;5.86;100.00
51986;BME280;38002;53.296;6.600;2024-02-26T13:01:16;101255.00;;;5.81;100.00
51986;BME280;38002;53.296;6.600;2024-02-26T13:06:18;101258.69;;;5.80;100.00
51986;BME280;38002;53.296;6.600;2024-02-26T13:11:19;101262.34;;;5.79;100.00
51986;BME280;38002;53.296;6.600;2024-02-26T13:16:23;101273.03;;;5.81;100.00
51986;BME280;38002;53.296;6.600;2024-02-26T13:21:24;101272.94;;;5.82;100.00
51986;BME280;38002;53.296;6.600;2024-02-26T13:26:26;101289.34;;;5.79;100.00
51986;BME280;38002;53.296;6.600;2024-02-26T13:31:26;101301.47;;;5.74;100.00
51986;BME280;38002;53.296;6.600;2024-02-26T13:36:27;101310.78;;;5.70;100.00
51986;BME280;38002;53.296;6.600;2024-02-26T13:41:27;101315.69;;;5.65;100.00
51986;BME280;38002;53.296;6.600;2024-02-26T13:46:28;101322.06;;;5.64;100.00
51986;BME280;38002;53.296;6.600;2024-02-26T13:51:28;101328.53;;;5.61;100.00
51986;BME280;38002;53.296;6.600;2024-02-26T13:56:35;101340.34;;;5.60;100.00
51986;BME280;38002;53.296;6.600;2024-02-26T14:01:36;101343.13;;;5.59;100.00
51986;BME280;38002;53.296;6.600;2024-02-26T14:06:37;101351.47;;;5.56;100.00
51986;BME280;38002;53.296;6.600;2024-02-26T14:11:37;101350.84;;;5.52;100.00
51986;BME280;38002;53.296;6.600;2024-02-26T14:16:39;101351.22;;;5.47;100.00
51986;BME280;38002;53.296;6.600;2024-02-26T14:21:40;101358.44;;;5.47;100.00
51986;BME280;38002;53.296;6.600;2024-02-26T14:26:40;101361.13;;;5.47;100.00
51986;BME280;38002;53.296;6.600;2024-02-26T14:31:41;101370.09;;;5.47;100.00
51986;BME280;38002;53.296;6.600;2024-02-26T14:36:41;101357.56;;;5.46;100.00
51986;BME280;38002;53.296;6.600;2024-02-26T14:41:42;101370.53;;;5.41;100.00
51986;BME280;38002;53.296;6.600;2024-02-26T14:46:42;101377.66;;;5.42;100.00
51986;BME280;38002;53.296;6.600;2024-02-26T14:51:44;101389.19;;;5.44;100.00
51986;BME280;38002;53.296;6.600;2024-02-26T14:56:45;101381.34;;;5.41;100.00
51986;BME280;38002;53.296;6.600;2024-02-26T15:01:46;101395.06;;;5.38;100.00
51986;BME280;38002;53.296;6.600;2024-02-26T15:06:46;101396.03;;;5.37;100.00
51986;BME280;38002;53.296;6.600;2024-02-26T15:11:47;101396.03;;;5.37;100.00
51986;BME280;38002;53.296;6.600;2024-02-26T15:16:47;101393.56;;;5.34;100.00
51986;BME280;38002;53.296;6.600;2024-02-26T15:21:48;101399.16;;;5.31;100.00
51986;BME280;38002;53.296;6.600;2024-02-26T15:26:49;101410.09;;;5.30;100.00
51986;BME280;38002;53.296;6.600;2024-02-26T15:31:50;101425.50;;;5.28;100.00
51986;BME280;38002;53.296;6.600;2024-02-26T15:36:50;101429.16;;;5.27;100.00
51986;BME280;38002;53.296;6.600;2024-02-26T15:41:51;101432.22;;;5.22;100.00
51986;BME280;38002;53.296;6.600;2024-02-26T15:46:51;101436.78;;;5.22;100.00
51986;BME280;38002;53.296;6.600;2024-02-26T15:51:52;101446.78;;;5.20;100.00
51986;BME280;38002;53.296;6.600;2024-02-26T15:56:53;101451.66;;;5.15;100.00
51986;BME280;38002;53.296;6.600;2024-02-26T16:01:53;101453.72;;;5.11;100.00
51986;BME280;38002;53.296;6.600;2024-02-26T16:06:58;101466.66;;;5.06;100.00
51986;BME280;38002;53.296;6.600;2024-02-26T16:12:08;101490.19;;;5.04;100.00
51986;BME280;38002;53.296;6.600;2024-02-26T16:17:33;101489.44;;;5.02;100.00
51986;BME280;38002;53.296;6.600;2024-02-26T16:22:34;101491.38;;;5.00;100.00
51986;BME280;38002;53.296;6.600;2024-02-26T16:27:38;101495.03;;;4.99;100.00
51986;BME280;38002;53.296;6.600;2024-02-26T16:32:41;101493.41;;;4.96;100.00
51986;BME280;38002;53.296;6.600;2024-02-26T16:37:42;101509.59;;;4.96;100.00
51986;BME280;38002;53.296;6.600;2024-02-26T16:42:43;101521.56;;;4.92;100.00
51986;BME280;38002;53.296;6.600;2024-02-26T16:47:43;101533.66;;;4.87;100.00
51986;BME280;38002;53.296;6.600;2024-02-26T16:52:44;101540.97;;;4.85;100.00
51986;BME280;38002;53.296;6.600;2024-02-26T16:57:44;101547.78;;;4.78;100.00
51986;BME280;38002;53.296;6.600;2024-02-26T17:02:45;101554.44;;;4.72;100.00
51986;BME280;38002;53.296;6.600;2024-02-26T17:07:47;101552.09;;;4.68;100.00
51986;BME280;38002;53.296;6.600;2024-02-26T17:12:48;101551.75;;;4.60;100.00
51986;BME280;38002;53.296;6.600;2024-02-26T17:17:48;101566.09;;;4.60;100.00
51986;BME280;38002;53.296;6.600;2024-02-26T17:22:49;101571.56;;;4.58;100.00
51986;BME280;38002;53.296;6.600;2024-02-26T17:27:49;101590.88;;;4.52;100.00
51986;BME280;38002;53.296;6.600;2024-02-26T17:32:50;101599.25;;;4.48;100.00
51986;BME280;38002;53.296;6.600;2024-02-26T17:37:51;101603.88;;;4.46;100.00
51986;BME280;38002;53.296;6.600;2024-02-26T17:42:51;101609.56;;;4.41;100.00
51986;BME280;38002;53.296;6.600;2024-02-26T17:47:52;101613.44;;;4.37;100.00
51986;BME280;38002;53.296;6.600;2024-02-26T17:52:53;101627.00;;;4.36;100.00
51986;BME280;38002;53.296;6.600;2024-02-26T17:57:55;101637.13;;;4.32;100.00
51986;BME280;38002;53.296;6.600;2024-02-26T18:02:56;101645.31;;;4.31;100.00
51986;BME280;38002;53.296;6.600;2024-02-26T18:07:56;101656.38;;;4.26;100.00
51986;BME280;38002;53.296;6.600;2024-02-26T18:12:58;101667.34;;;4.23;100.00
51986;BME280;38002;53.296;6.600;2024-02-26T18:17:59;101669.28;;;4.21;100.00
51986;BME280;38002;53.296;6.600;2024-02-26T18:23:00;101671.31;;;4.18;100.00
51986;BME280;38002;53.296;6.600;2024-02-26T18:28:00;101684.97;;;4.15;100.00
51986;BME280;38002;53.296;6.600;2024-02-26T18:33:00;101697.75;;;4.11;100.00
51986;BME280;38002;53.296;6.600;2024-02-26T18:38:01;101708.66;;;4.09;100.00
51986;BME280;38002;53.296;6.600;2024-02-26T18:43:02;101717.97;;;4.04;100.00
51986;BME280;38002;53.296;6.600;2024-02-26T18:48:04;101728.94;;;4.01;100.00
51986;BME280;38002;53.296;6.600;2024-02-26T18:53:07;101732.66;;;3.98;100.00
51986;BME280;38002;53.296;6.600;2024-02-26T18:58:08;101736.53;;;3.94;100.00
51986;BME280;38002;53.296;6.600;2024-02-26T19:03:09;101747.38;;;3.93;100.00
51986;BME280;38002;53.296;6.600;2024-02-26T19:08:09;101759.13;;;3.92;100.00
51986;BME280;38002;53.296;6.600;2024-02-26T19:13:10;101768.06;;;3.92;100.00
51986;BME280;38002;53.296;6.600;2024-02-26T19:18:11;101777.19;;;3.90;100.00
51986;BME280;38002;53.296;6.600;2024-02-26T19:23:12;101784.28;;;3.91;100.00
51986;BME280;38002;53.296;6.600;2024-02-26T19:28:13;101795.06;;;3.91;100.00
51986;BME280;38002;53.296;6.600;2024-02-26T19:33:15;101787.19;;;3.88;100.00
51986;BME280;38002;53.296;6.600;2024-02-26T19:38:17;101785.81;;;3.81;100.00
51986;BME280;38002;53.296;6.600;2024-02-26T19:43:17;101787.34;;;3.85;100.00
51986;BME280;38002;53.296;6.600;2024-02-26T19:48:18;101797.66;;;3.78;100.00
51986;BME280;38002;53.296;6.600;2024-02-26T19:53:19;101812.06;;;3.77;100.00
51986;BME280;38002;53.296;6.600;2024-02-26T19:58:20;101815.81;;;3.75;100.00
51986;BME280;38002;53.296;6.600;2024-02-26T20:03:20;101815.97;;;3.72;100.00
51986;BME280;38002;53.296;6.600;2024-02-26T20:08:21;101827.72;;;3.71;100.00
51986;BME280;38002;53.296;6.600;2024-02-26T20:13:21;101826.06;;;3.68;100.00
51986;BME280;38002;53.296;6.600;2024-02-26T20:18:27;101827.03;;;3.67;100.00
51986;BME280;38002;53.296;6.600;2024-02-26T20:23:28;101839.78;;;3.63;100.00
51986;BME280;38002;53.296;6.600;2024-02-26T20:28:29;101840.75;;;3.62;100.00
51986;BME280;38002;53.296;6.600;2024-02-26T20:33:32;101854.38;;;3.59;100.00
51986;BME280;38002;53.296;6.600;2024-02-26T20:38:32;101848.41;;;3.54;100.00
51986;BME280;38002;53.296;6.600;2024-02-26T20:43:33;101860.16;;;3.53;100.00
51986;BME280;38002;53.296;6.600;2024-02-26T20:48:34;101872.06;;;3.49;100.00
51986;BME280;38002;53.296;6.600;2024-02-26T20:53:35;101877.59;;;3.46;100.00
51986;BME280;38002;53.296;6.600;2024-02-26T20:58:36;101883.16;;;3.43;100.00
51986;BME280;38002;53.296;6.600;2024-02-26T21:03:37;101884.31;;;3.39;100.00
51986;BME280;38002;53.296;6.600;2024-02-26T21:08:38;101894.28;;;3.37;100.00
51986;BME280;38002;53.296;6.600;2024-02-26T21:13:39;101903.31;;;3.36;100.00
51986;BME280;38002;53.296;6.600;2024-02-26T21:18:40;101904.25;;;3.35;100.00
51986;BME280;38002;53.296;6.600;2024-02-26T21:23:42;101916.91;;;3.33;100.00
51986;BME280;38002;53.296;6.600;2024-02-26T21:28:43;101921.41;;;3.33;100.00
51986;BME280;38002;53.296;6.600;2024-02-26T21:33:44;101923.44;;;3.29;100.00
51986;BME280;38002;53.296;6.600;2024-02-26T21:38:44;101929.84;;;3.27;100.00
51986;BME280;38002;53.296;6.600;2024-02-26T21:43:45;101939.75;;;3.26;100.00
51986;BME280;38002;53.296;6.600;2024-02-26T21:48:50;101946.16;;;3.24;100.00
51986;BME280;38002;53.296;6.600;2024-02-26T21:53:50;101951.81;;;3.19;100.00
51986;BME280;38002;53.296;6.600;2024-02-26T21:58:51;101956.56;;;3.14;100.00
51986;BME280;38002;53.296;6.600;2024-02-26T22:03:51;101963.84;;;3.12;100.00
51986;BME280;38002;53.296;6.600;2024-02-26T22:08:52;101959.59;;;3.08;100.00
51986;BME280;38002;53.296;6.600;2024-02-26T22:13:52;101968.03;;;3.02;100.00
51986;BME280;38002;53.296;6.600;2024-02-26T22:18:53;101967.50;;;2.95;100.00
51986;BME280;38002;53.296;6.600;2024-02-26T22:23:53;101963.50;;;2.87;100.00
51986;BME280;38002;53.296;6.600;2024-02-26T22:28:54;101974.56;;;2.81;100.00
51986;BME280;38002;53.296;6.600;2024-02-26T22:33:54;101972.25;;;2.74;100.00
51986;BME280;38002;53.296;6.600;2024-02-26T22:38:55;101974.31;;;2.69;100.00
51986;BME280;38002;53.296;6.600;2024-02-26T22:43:55;101975.50;;;2.64;100.00
51986;BME280;38002;53.296;6.600;2024-02-26T22:48:56;101982.09;;;2.58;100.00
51986;BME280;38002;53.296;6.600;2024-02-26T22:53:56;101974.44;;;2.51;100.00
51986;BME280;38002;53.296;6.600;2024-02-26T22:58:57;101980.94;;;2.47;100.00
51986;BME280;38002;53.296;6.600;2024-02-26T23:03:58;101982.16;;;2.41;100.00
51986;BME280;38002;53.296;6.600;2024-02-26T23:08:58;101990.53;;;2.35;100.00
51986;BME280;38002;53.296;6.600;2024-02-26T23:13:59;101994.25;;;2.33;100.00
51986;BME280;38002;53.296;6.600;2024-02-26T23:18:59;101998.19;;;2.25;100.00
51986;BME280;38002;53.296;6.600;2024-02-26T23:23:59;102004.78;;;2.20;100.00
51986;BME280;38002;53.296;6.600;2024-02-26T23:29:01;102011.16;;;2.17;100.00
51986;BME280;38002;53.296;6.600;2024-02-26T23:34:02;102018.66;;;2.11;100.00
51986;BME280;38002;53.296;6.600;2024-02-26T23:39:02;102027.00;;;2.05;100.00
51986;BME280;38002;53.296;6.600;2024-02-26T23:44:03;102020.88;;;2.03;100.00
51986;BME280;38002;53.296;6.600;2024-02-26T23:49:03;102024.72;;;1.97;100.00
51986;BME280;38002;53.296;6.600;2024-02-26T23:54:06;102025.75;;;1.95;100.00
51986;BME280;38002;53.296;6.600;2024-02-26T23:59:06;102024.09;;;1.92;100.00
